Time;durP1;ratioP1;P1;durP2;ratioP2;P2;SDS_P1;SDS_P2;PMS_P1;PMS_P2;Temp;Humidity;BMP_temperature;BMP_pressure;BME280_temperature;BME280_humidity;BME280_pressure;Samples;Min_cycle;Max_cycle;Signal;HPM_P1;HPM_P2
2023/09/10 00:01:30;;;;;;;;;;;;;;;-145.06;0.00;60892.56;6077694;22;19916;-89
2023/09/10 00:04:09;;;;;;;;;;;;;;;-145.06;0.00;60892.56;6078958;22;19911;-89
2023/09/10 00:06:48;;;;;;;;;;;;;;;-145.06;0.00;60892.56;6056754;22;20001;-90
2023/09/10 00:09:27;;;;;;;;;;;;;;;-145.06;0.00;60892.56;6078436;22;19912;-90
2023/09/10 00:12:06;;;;;;;;;;;;;;;-145.06;0.00;60892.56;6077472;22;19986;-90
2023/09/10 00:14:45;;;;;;;;;;;;;;;-145.06;0.00;60892.56;6055172;22;19907;-90
2023/09/10 00:17:24;;;;;;;;;;;;;;;-145.06;0.00;60892.56;6077894;22;19911;-90
2023/09/10 00:20:05;;;;;;;;;;;;;;;-145.06;0.00;60892.56;6078561;22;19951;-90
2023/09/10 00:22:44;;;;;;;;;;;;;;;-145.06;0.00;60892.56;6054845;22;19911;-89
2023/09/10 00:25:23;;;;;;;;;;;;;;;-145.06;0.00;60892.56;6066937;22;20234;-90
2023/09/10 00:28:02;;;;;;;;;;;;;;;-145.06;0.00;60892.56;6055119;22;19957;-90
2023/09/10 00:30:41;;;;;;;;;;;;;;;-145.06;0.00;60892.56;6056229;22;19943;-90
2023/09/10 00:33:20;;;;;;;;;;;;;;;-145.06;0.00;60892.56;6054393;22;19911;-90
2023/09/10 00:35:59;;;;;;;;;;;;;;;-145.06;0.00;60892.56;6065439;22;19907;-90
2023/09/10 00:38:38;;;;;;;;;;;;;;;-145.06;0.00;60892.56;6077391;22;19911;-90
2023/09/10 00:41:17;;;;;;;;;;;;;;;-145.06;0.00;60892.56;6057127;22;20250;-90
2023/09/10 00:43:56;;;;;;;;;;;;;;;-145.06;0.00;60892.56;6055202;22;19911;-90
2023/09/10 00:46:35;;;;;;;;;;;;;;;-145.06;0.00;60892.56;6076171;22;19907;-90
2023/09/10 00:49:14;;;;;;;;;;;;;;;-145.06;0.00;60892.56;6066430;22;19915;-89
2023/09/10 00:51:53;;;;;;;;;;;;;;;-145.06;0.00;60892.56;6075490;22;19915;-90
2023/09/10 00:54:33;;;;;;;;;;;;;;;-145.06;0.00;60892.56;6056248;22;19959;-90
2023/09/10 00:57:11;;;;;;;;;;;;;;;-145.06;0.00;60892.56;6055345;22;19907;-90
2023/09/10 00:59:50;;;;;;;;;;;;;;;-145.06;0.00;60892.56;6076409;22;19911;-90
2023/09/10 01:02:30;;;;;;;;;;;;;;;-145.06;0.00;60892.56;6077515;22;19912;-89
2023/09/10 01:05:10;;;;;;;;;;;;;;;-145.06;0.00;60892.56;6077063;22;20314;-90
2023/09/10 01:07:49;;;;;;;;;;;;;;;-145.06;0.00;60892.56;6054600;22;19907;-89
2023/09/10 01:10:32;;;;;;;;;;;;;;;-145.06;0.00;60892.56;6054649;22;20302;-89
2023/09/10 01:13:15;;;;;;;;;;;;;;;-145.06;0.00;60892.56;6054842;22;19907;-90
2023/09/10 01:16:00;;;;;;;;;;;;;;;-145.06;0.00;60892.56;6056945;22;19981;-90
2023/09/10 01:18:47;;;;;;;;;;;;;;;-145.06;0.00;60892.56;6056502;22;19907;-90
2023/09/10 01:21:41;;;;;;;;;;;;;;;-145.06;0.00;60892.56;6054018;22;19955;-91
2023/09/10 01:24:24;;;;;;;;;;;;;;;-145.06;0.00;60892.56;6055216;22;20211;-90
2023/09/10 01:27:03;;;;;;;;;;;;;;;-145.06;0.00;60892.56;6066068;22;19911;-90
2023/09/10 01:29:43;;;;;;;;;;;;;;;-145.06;0.00;60892.56;6077321;22;19911;-90
2023/09/10 01:32:35;;;;;;;;;;;;;;;-145.06;0.00;60892.56;6067187;22;19911;-90
2023/09/10 01:35:19;;;;;;;;;;;;;;;-145.06;0.00;60892.56;6066230;22;19915;-89
2023/09/10 01:38:01;;;;;;;;;;;;;;;-145.06;0.00;60892.56;6056210;22;19915;-90
2023/09/10 01:40:51;;;;;;;;;;;;;;;-145.06;0.00;60892.56;6056396;22;19907;-90
2023/09/10 01:43:31;;;;;;;;;;;;;;;-145.06;0.00;60892.56;6055103;22;19911;-91
2023/09/10 01:46:12;;;;;;;;;;;;;;;-145.06;0.00;60892.56;6057899;22;19911;-90
2023/09/10 01:48:51;;;;;;;;;;;;;;;-145.06;0.00;60892.56;6054795;22;19908;-89
2023/09/10 01:51:30;;;;;;;;;;;;;;;-145.06;0.00;60892.56;6066250;22;19915;-90
2023/09/10 01:54:08;;;;;;;;;;;;;;;-145.06;0.00;60892.56;6078563;22;19907;-89
2023/09/10 01:56:47;;;;;;;;;;;;;;;-145.06;0.00;60892.56;6066453;22;20274;-89
2023/09/10 01:59:26;;;;;;;;;;;;;;;-145.06;0.00;60892.56;6066769;22;20393;-90
2023/09/10 02:02:05;;;;;;;;;;;;;;;-145.06;0.00;60892.56;6064659;22;19942;-89
2023/09/10 02:04:44;;;;;;;;;;;;;;;-145.06;0.00;60892.56;6076599;22;19907;-90
2023/09/10 02:07:24;;;;;;;;;;;;;;;-145.06;0.00;60892.56;6076813;22;19911;-89
2023/09/10 02:10:03;;;;;;;;;;;;;;;-145.06;0.00;60892.56;6055570;22;19911;-89
2023/09/10 02:12:42;;;;;;;;;;;;;;;-145.06;0.00;60892.56;6065926;22;19907;-89
2023/09/10 02:15:21;;;;;;;;;;;;;;;-145.06;0.00;60892.56;6078272;22;19911;-89
2023/09/10 02:18:00;;;;;;;;;;;;;;;-145.06;0.00;60892.56;6075280;22;19907;-89
2023/09/10 02:20:39;;;;;;;;;;;;;;;-145.06;0.00;60892.56;6074358;22;19908;-90
2023/09/10 02:23:18;;;;;;;;;;;;;;;-145.06;0.00;60892.56;6072093;22;19911;-90
2023/09/10 02:25:57;;;;;;;;;;;;;;;-145.06;0.00;60892.56;6074156;22;19907;-90
2023/09/10 02:28:36;;;;;;;;;;;;;;;-145.06;0.00;60892.56;6054889;22;19907;-90
2023/09/10 02:31:15;;;;;;;;;;;;;;;-145.06;0.00;60892.56;6053305;22;19915;-90
2023/09/10 02:34:00;;;;;;;;;;;;;;;-145.06;0.00;60892.56;6055128;22;20289;-90
2023/09/10 02:36:39;;;;;;;;;;;;;;;-145.06;0.00;60892.56;6075577;22;19908;-89
2023/09/10 02:39:18;;;;;;;;;;;;;;;-145.06;0.00;60892.56;6055958;22;19911;-90
2023/09/10 02:41:57;;;;;;;;;;;;;;;-145.06;0.00;60892.56;6075911;22;19990;-90
2023/09/10 02:44:36;;;;;;;;;;;;;;;-145.06;0.00;60892.56;6076949;22;19907;-89
2023/09/10 02:47:15;;;;;;;;;;;;;;;-145.06;0.00;60892.56;6055626;22;19907;-90
2023/09/10 02:49:55;;;;;;;;;;;;;;;-145.06;0.00;60892.56;6075582;22;20396;-89
2023/09/10 02:52:34;;;;;;;;;;;;;;;-145.06;0.00;60892.56;6053156;22;20346;-90
2023/09/10 02:55:15;;;;;;;;;;;;;;;-145.06;0.00;60892.56;6055264;22;19955;-89
2023/09/10 02:57:54;;;;;;;;;;;;;;;-145.06;0.00;60892.56;6078125;22;19911;-90
2023/09/10 03:00:33;;;;;;;;;;;;;;;-145.06;0.00;60892.56;6078492;22;19911;-90
2023/09/10 03:03:12;;;;;;;;;;;;;;;-145.06;0.00;60892.56;6077611;22;19911;-89
2023/09/10 03:05:51;;;;;;;;;;;;;;;-145.06;0.00;60892.56;6068425;22;19907;-89
2023/09/10 03:08:35;;;;;;;;;;;;;;;-145.06;0.00;60892.56;6066841;22;20509;-89
2023/09/10 03:11:14;;;;;;;;;;;;;;;-145.06;0.00;60892.56;6076760;22;19919;-90
2023/09/10 03:13:53;;;;;;;;;;;;;;;-145.06;0.00;60892.56;6076221;22;19911;-90
2023/09/10 03:16:33;;;;;;;;;;;;;;;-145.06;0.00;60892.56;6076661;22;19935;-89
2023/09/10 03:19:12;;;;;;;;;;;;;;;-145.06;0.00;60892.56;6057224;22;20233;-91
2023/09/10 03:21:51;;;;;;;;;;;;;;;-145.06;0.00;60892.56;6076354;22;19911;-90
2023/09/10 03:24:33;;;;;;;;;;;;;;;20.83;0.00;60892.56;6056568;22;19911;-89
2023/09/10 03:27:12;;;;;;;;;;;;;;;-145.06;0.00;60892.56;6066985;22;20306;-89
2023/09/10 03:29:51;;;;;;;;;;;;;;;-145.06;0.00;60892.56;6057376;22;19908;-90
2023/09/10 03:32:30;;;;;;;;;;;;;;;20.76;0.00;60892.56;6055220;22;19911;-90
2023/09/10 03:35:10;;;;;;;;;;;;;;;-145.06;0.00;60892.56;6065749;22;19907;-89
2023/09/10 03:37:52;;;;;;;;;;;;;;;187.52;0.00;60892.56;6055105;22;19915;-89
2023/09/10 03:40:32;;;;;;;;;;;;;;;-145.06;0.00;60892.56;6078678;22;19907;-90
2023/09/10 03:43:11;;;;;;;;;;;;;;;-145.06;0.00;60892.56;6076757;22;19986;-89
2023/09/10 03:45:50;;;;;;;;;;;;;;;-145.06;0.00;60892.56;6077581;22;20474;-90
2023/09/10 03:48:29;;;;;;;;;;;;;;;-145.06;0.00;60892.56;6077583;22;19915;-88
2023/09/10 03:51:08;;;;;;;;;;;;;;;-145.06;0.00;60892.56;6066322;22;20318;-90
2023/09/10 03:53:47;;;;;;;;;;;;;;;-145.06;0.00;60892.56;6077945;22;19907;-90
2023/09/10 03:56:26;;;;;;;;;;;;;;;-145.06;0.00;60892.56;6078356;22;19915;-89
2023/09/10 03:59:08;;;;;;;;;;;;;;;-145.06;0.00;60892.56;6078019;22;19911;-90
2023/09/10 04:01:47;;;;;;;;;;;;;;;-145.06;0.00;60892.56;6055711;22;19911;-89
2023/09/10 04:04:27;;;;;;;;;;;;;;;-145.06;0.00;60892.56;6077317;22;19911;-90
2023/09/10 04:07:06;;;;;;;;;;;;;;;-145.06;0.00;60892.56;6077030;22;20358;-90
2023/09/10 04:09:45;;;;;;;;;;;;;;;21.08;0.00;60892.56;6078151;22;19907;-89
2023/09/10 04:12:24;;;;;;;;;;;;;;;20.75;0.00;60892.56;6076564;22;20238;-88
2023/09/10 04:15:03;;;;;;;;;;;;;;;-145.06;0.00;60892.56;6067779;22;19907;-89
2023/09/10 04:17:42;;;;;;;;;;;;;;;-145.06;0.00;60892.56;6056250;22;19907;-89
2023/09/10 04:20:21;;;;;;;;;;;;;;;-145.06;0.00;60892.56;6057090;22;19938;-89
2023/09/10 04:23:01;;;;;;;;;;;;;;;-145.06;0.00;60892.56;6076042;22;19907;-90
2023/09/10 04:25:40;;;;;;;;;;;;;;;-145.06;0.00;60892.56;6077640;22;19907;-88
2023/09/10 04:28:19;;;;;;;;;;;;;;;-145.06;0.00;60892.56;6084897;22;19907;-93
2023/09/10 04:30:58;;;;;;;;;;;;;;;-145.06;0.00;60892.56;6082991;22;19911;-92
2023/09/10 04:33:37;;;;;;;;;;;;;;;-145.06;0.00;60892.56;6081647;22;19907;-92
2023/09/10 04:36:16;;;;;;;;;;;;;;;-145.06;0.00;60892.56;6062767;22;20203;-93
2023/09/10 04:38:55;;;;;;;;;;;;;;;-145.06;0.00;60892.56;6083248;22;19907;-92
2023/09/10 04:41:35;;;;;;;;;;;;;;;-145.06;0.00;60892.56;6082582;22;19911;-93
2023/09/10 04:44:14;;;;;;;;;;;;;;;-145.06;0.00;60892.56;6060814;22;19943;-93
2023/09/10 04:46:54;;;;;;;;;;;;;;;-145.06;0.00;60892.56;6072046;22;19911;-92
2023/09/10 04:49:33;;;;;;;;;;;;;;;-145.06;0.00;60892.56;6083020;22;19907;-92
2023/09/10 04:52:12;;;;;;;;;;;;;;;-145.06;0.00;60892.56;6082723;22;20387;-91
2023/09/10 04:54:51;;;;;;;;;;;;;;;-145.06;0.00;60892.56;6082901;22;19907;-93
2023/09/10 04:57:30;;;;;;;;;;;;;;;-145.06;0.00;60892.56;6082863;22;19907;-92
2023/09/10 05:00:09;;;;;;;;;;;;;;;-145.06;0.00;60892.56;6082850;22;20215;-92
2023/09/10 05:02:48;;;;;;;;;;;;;;;-145.06;0.00;60892.56;6060970;22;19911;-92
2023/09/10 05:05:27;;;;;;;;;;;;;;;-145.06;0.00;60892.56;6082556;22;19907;-93
2023/09/10 05:08:06;;;;;;;;;;;;;;;-145.06;0.00;60892.56;6081315;22;19907;-91
2023/09/10 05:10:47;;;;;;;;;;;;;;;-145.06;0.00;60892.56;6071180;22;19911;-92
2023/09/10 05:13:26;;;;;;;;;;;;;;;-145.06;0.00;60892.56;6062484;22;19907;-93
2023/09/10 05:16:05;;;;;;;;;;;;;;;-145.06;0.00;60892.56;6084519;22;19907;-93
2023/09/10 05:18:44;;;;;;;;;;;;;;;-145.06;0.00;60892.56;6082103;22;19911;-94
2023/09/10 05:21:23;;;;;;;;;;;;;;;-145.06;0.00;60892.56;6082932;22;19907;-93
2023/09/10 05:24:02;;;;;;;;;;;;;;;-145.06;0.00;60892.56;6083220;22;19907;-92
2023/09/10 05:26:41;;;;;;;;;;;;;;;-145.06;0.00;60892.56;6082403;22;19907;-93
2023/09/10 05:29:20;;;;;;;;;;;;;;;-145.06;0.00;60892.56;6082742;22;20330;-92
2023/09/10 05:32:01;;;;;;;;;;;;;;;-145.06;0.00;60892.56;6082029;22;19939;-92
2023/09/10 05:34:40;;;;;;;;;;;;;;;-145.06;0.00;60892.56;6082644;22;20346;-92
2023/09/10 05:37:19;;;;;;;;;;;;;;;-145.06;0.00;60892.56;6082445;22;19907;-93
2023/09/10 05:39:58;;;;;;;;;;;;;;;-145.06;0.00;60892.56;6060198;22;19935;-92
2023/09/10 05:42:37;;;;;;;;;;;;;;;-145.06;0.00;60892.56;6080969;22;20301;-91
2023/09/10 05:45:16;;;;;;;;;;;;;;;-145.06;0.00;60892.56;6080364;22;19911;-91
2023/09/10 05:47:55;;;;;;;;;;;;;;;-145.06;0.00;60892.56;6079891;22;19907;-92
2023/09/10 05:50:34;;;;;;;;;;;;;;;-145.06;0.00;60892.56;6080879;22;19919;-91
2023/09/10 05:53:13;;;;;;;;;;;;;;;-145.06;0.00;60892.56;6083933;22;19907;-92
2023/09/10 05:55:52;;;;;;;;;;;;;;;-145.06;0.00;60892.56;6084448;22;20333;-93
2023/09/10 05:58:31;;;;;;;;;;;;;;;-145.06;0.00;60892.56;6081278;22;19907;-91
2023/09/10 06:01:10;;;;;;;;;;;;;;;-145.06;0.00;60892.56;6059405;22;19911;-92
2023/09/10 06:03:49;;;;;;;;;;;;;;;-145.06;0.00;60892.56;6082379;22;19923;-92
2023/09/10 06:06:28;;;;;;;;;;;;;;;-145.06;0.00;60892.56;6080122;22;19907;-92
2023/09/10 06:09:07;;;;;;;;;;;;;;;-145.06;0.00;60892.56;6081822;22;19907;-92
2023/09/10 06:11:46;;;;;;;;;;;;;;;-145.06;0.00;60892.56;6081610;22;19911;-92
2023/09/10 06:14:26;;;;;;;;;;;;;;;-145.06;0.00;60892.56;6081314;22;19907;-92
2023/09/10 06:17:05;;;;;;;;;;;;;;;-145.06;0.00;60892.56;6059611;22;19907;-92
2023/09/10 06:19:44;;;;;;;;;;;;;;;-145.06;0.00;60892.56;6080578;22;19907;-92
2023/09/10 06:22:23;;;;;;;;;;;;;;;-145.06;0.00;60892.56;6078088;22;19935;-91
2023/09/10 06:25:02;;;;;;;;;;;;;;;-145.06;0.00;60892.56;6080935;22;19911;-92
2023/09/10 06:27:41;;;;;;;;;;;;;;;-145.06;0.00;60892.56;6078750;22;19907;-92
2023/09/10 06:30:20;;;;;;;;;;;;;;;-145.06;0.00;60892.56;6057307;22;20512;-89
2023/09/10 06:32:59;;;;;;;;;;;;;;;-145.06;0.00;60892.56;6080733;22;20270;-91
2023/09/10 06:35:38;;;;;;;;;;;;;;;-145.06;0.00;60892.56;6080944;22;19907;-93
2023/09/10 06:38:17;;;;;;;;;;;;;;;-145.06;0.00;60892.56;6080353;22;19911;-92
2023/09/10 06:40:56;;;;;;;;;;;;;;;-145.06;0.00;60892.56;6058258;22;19908;-91
2023/09/10 06:43:35;;;;;;;;;;;;;;;-145.06;0.00;60892.56;6078304;22;19907;-92
2023/09/10 06:46:14;;;;;;;;;;;;;;;-145.06;0.00;60892.56;6079950;22;19911;-91
2023/09/10 06:48:53;;;;;;;;;;;;;;;-145.06;0.00;60892.56;6080734;22;19912;-92
2023/09/10 06:51:32;;;;;;;;;;;;;;;-145.06;0.00;60892.56;6080415;22;19912;-91
2023/09/10 06:54:11;;;;;;;;;;;;;;;-145.06;0.00;60892.56;6081756;22;20223;-92
2023/09/10 06:56:50;;;;;;;;;;;;;;;-145.06;0.00;60892.56;6082400;22;19908;-93
2023/09/10 06:59:29;;;;;;;;;;;;;;;-145.06;0.00;60892.56;6079775;22;19937;-91
2023/09/10 07:02:08;;;;;;;;;;;;;;;-145.06;0.00;60892.56;6080192;22;19911;-92
2023/09/10 07:04:47;;;;;;;;;;;;;;;20.79;0.00;60892.56;6081293;22;19907;-91
2023/09/10 07:07:26;;;;;;;;;;;;;;;-145.06;0.00;60892.56;6081090;22;20326;-92
2023/09/10 07:10:12;;;;;;;;;;;;;;;20.91;0.00;60892.56;6080702;22;20262;-92
2023/09/10 07:12:51;;;;;;;;;;;;;;;-145.06;0.00;60892.56;6059541;22;19904;-93
2023/09/10 07:15:31;;;;;;;;;;;;;;;-145.06;0.00;60892.56;6081051;22;19907;-95
2023/09/10 07:18:09;;;;;;;;;;;;;;;-145.06;0.00;60892.56;6059365;22;19933;-93
2023/09/10 07:20:48;;;;;;;;;;;;;;;-145.06;0.00;60892.56;6081740;22;19907;-93
2023/09/10 07:23:28;;;;;;;;;;;;;;;-145.06;0.00;60892.56;6081486;22;19907;-92
2023/09/10 07:26:09;;;;;;;;;;;;;;;-145.06;0.00;60892.56;6056428;22;19907;-90
2023/09/10 07:28:48;;;;;;;;;;;;;;;21.36;0.00;60892.56;6058659;22;19907;-95
2023/09/10 07:31:27;;;;;;;;;;;;;;;-145.06;0.00;60892.56;6080938;22;19911;-94
2023/09/10 07:34:06;;;;;;;;;;;;;;;-145.06;0.00;60892.56;6081821;22;19907;-93
2023/09/10 07:36:46;;;;;;;;;;;;;;;-145.06;0.00;60892.56;6081420;22;19974;-93
2023/09/10 07:39:29;;;;;;;;;;;;;;;-145.06;0.00;60892.56;6081316;22;19912;-93
2023/09/10 07:42:08;;;;;;;;;;;;;;;-145.06;0.00;60892.56;6082562;22;19907;-93
2023/09/10 07:44:47;;;;;;;;;;;;;;;-145.06;0.00;60892.56;6083146;22;19907;-93
2023/09/10 07:47:29;;;;;;;;;;;;;;;-145.06;0.00;60892.56;6083401;22;19935;-93
2023/09/10 07:50:08;;;;;;;;;;;;;;;-145.06;0.00;60892.56;6084066;22;19908;-92
2023/09/10 07:52:47;;;;;;;;;;;;;;;-145.06;0.00;60892.56;6061633;22;19942;-93
2023/09/10 07:55:26;;;;;;;;;;;;;;;-145.06;0.00;60892.56;6083546;22;19907;-93
2023/09/10 07:58:05;;;;;;;;;;;;;;;-145.06;0.00;60892.56;6083567;22;19911;-94
2023/09/10 08:00:44;;;;;;;;;;;;;;;-145.06;0.00;60892.56;6082990;22;19915;-93
2023/09/10 08:03:26;;;;;;;;;;;;;;;-145.06;0.00;60892.56;6083780;22;19911;-93
2023/09/10 08:06:05;;;;;;;;;;;;;;;-145.06;0.00;60892.56;6082701;22;19912;-91
2023/09/10 08:08:44;;;;;;;;;;;;;;;-145.06;0.00;60892.56;6081170;22;19915;-90
2023/09/10 08:11:23;;;;;;;;;;;;;;;-145.06;0.00;60892.56;6080072;22;19915;-91
2023/09/10 08:14:02;;;;;;;;;;;;;;;-145.06;0.00;60892.56;6058883;22;19911;-90
2023/09/10 08:16:42;;;;;;;;;;;;;;;-145.06;0.00;60892.56;6081484;22;19911;-93
2023/09/10 08:19:20;;;;;;;;;;;;;;;-145.06;0.00;60892.56;6079981;22;19974;-93
2023/09/10 08:21:59;;;;;;;;;;;;;;;-145.06;0.00;60892.56;6075775;22;20139;-93
2023/09/10 08:24:38;;;;;;;;;;;;;;;-145.06;0.00;60892.56;6076440;22;20231;-92
2023/09/10 08:27:17;;;;;;;;;;;;;;;23.30;0.00;60892.56;6074460;22;20384;-94
2023/09/10 08:29:57;;;;;;;;;;;;;;;-145.06;0.00;60892.56;6074736;22;19907;-92
2023/09/10 08:32:37;;;;;;;;;;;;;;;-145.06;0.00;60892.56;6082374;22;19911;-93
2023/09/10 08:35:19;;;;;;;;;;;;;;;-145.06;0.00;60892.56;6057040;22;19950;-91
2023/09/10 08:37:58;;;;;;;;;;;;;;;-145.06;0.00;60892.56;6055704;22;19915;-91
2023/09/10 08:41:03;;;;;;;;;;;;;;;-145.06;0.00;60892.56;6081668;22;20306;-90
2023/09/10 08:43:48;;;;;;;;;;;;;;;-145.06;0.00;60892.56;6081757;22;19911;-91
2023/09/10 08:46:31;;;;;;;;;;;;;;;-145.06;0.00;60892.56;6053569;22;19911;-90
2023/09/10 08:49:12;;;;;;;;;;;;;;;-145.06;0.00;60892.56;6061706;22;19907;-90
2023/09/10 08:51:51;;;;;;;;;;;;;;;-145.06;0.00;60892.56;6060153;22;19915;-90
2023/09/10 08:54:30;;;;;;;;;;;;;;;-145.06;0.00;60892.56;6079622;22;20100;-91
2023/09/10 08:57:10;;;;;;;;;;;;;;;-145.06;0.00;60892.56;6075544;22;20022;-92
2023/09/10 08:59:50;;;;;;;;;;;;;;;-145.06;0.00;60892.56;6058560;22;19915;-91
2023/09/10 09:02:32;;;;;;;;;;;;;;;-145.06;0.00;60892.56;6059222;22;20215;-91
2023/09/10 09:05:11;;;;;;;;;;;;;;;-145.06;0.00;60892.56;6059664;22;19982;-89
2023/09/10 09:07:54;;;;;;;;;;;;;;;-145.06;0.00;60892.56;6058346;22;19907;-89
2023/09/10 09:10:33;;;;;;;;;;;;;;;-145.06;0.00;60892.56;6057430;22;19915;-90
2023/09/10 09:13:13;;;;;;;;;;;;;;;-145.06;0.00;60892.56;6079111;22;20270;-89
2023/09/10 09:15:52;;;;;;;;;;;;;;;-145.06;0.00;60892.56;6058770;22;19907;-90
2023/09/10 09:18:33;;;;;;;;;;;;;;;-145.06;0.00;60892.56;6068304;22;19980;-90
2023/09/10 09:21:19;;;;;;;;;;;;;;;-145.06;0.00;60892.56;6051799;22;19911;-89
2023/09/10 09:23:59;;;;;;;;;;;;;;;-145.06;0.00;60892.56;6057325;22;19931;-89
2023/09/10 09:26:41;;;;;;;;;;;;;;;-145.06;0.00;60892.56;6054104;22;19911;-90
2023/09/10 09:29:20;;;;;;;;;;;;;;;-145.06;0.00;60892.56;6055760;22;19907;-91
2023/09/10 09:31:59;;;;;;;;;;;;;;;-145.06;0.00;60892.56;6075110;22;19911;-89
2023/09/10 09:34:38;;;;;;;;;;;;;;;-145.06;0.00;60892.56;6054533;22;19911;-90
2023/09/10 09:37:19;;;;;;;;;;;;;;;-145.06;0.00;60892.56;6054593;22;19951;-89
2023/09/10 09:40:02;;;;;;;;;;;;;;;-145.06;0.00;60892.56;6054484;22;19943;-90
2023/09/10 09:42:41;;;;;;;;;;;;;;;26.00;0.00;60892.56;6057677;22;20322;-90
2023/09/10 09:45:21;;;;;;;;;;;;;;;26.08;0.00;60892.56;6079776;22;19911;-90
2023/09/10 09:48:00;;;;;;;;;;;;;;;26.15;0.00;60892.56;6080597;22;19907;-91
2023/09/10 09:50:39;;;;;;;;;;;;;;;26.23;0.00;60892.56;6069046;22;19911;-92
2023/09/10 09:53:18;;;;;;;;;;;;;;;-145.06;0.00;60892.56;6056989;22;20277;-91
2023/09/10 09:56:01;;;;;;;;;;;;;;;-145.06;0.00;60892.56;6079956;22;19911;-92
2023/09/10 09:58:40;;;;;;;;;;;;;;;-145.06;0.00;60892.56;6057286;22;20305;-88
2023/09/10 10:01:20;;;;;;;;;;;;;;;-145.06;0.00;60892.56;6079949;22;19911;-89
2023/09/10 10:03:59;;;;;;;;;;;;;;;-145.06;0.00;60892.56;6058360;22;20317;-90
2023/09/10 10:06:39;;;;;;;;;;;;;;;-145.06;0.00;60892.56;6053092;22;19911;-89
2023/09/10 10:09:19;;;;;;;;;;;;;;;26.96;0.00;60892.56;6057683;22;20450;-89
2023/09/10 10:11:58;;;;;;;;;;;;;;;-145.06;0.00;60892.56;6079103;22;19983;-89
2023/09/10 10:14:37;;;;;;;;;;;;;;;-145.06;0.00;60892.56;6069964;22;19911;-90
2023/09/10 10:17:16;;;;;;;;;;;;;;;-145.06;0.00;60892.56;6057542;22;19908;-89
2023/09/10 10:19:55;;;;;;;;;;;;;;;-145.06;0.00;60892.56;6079679;22;19907;-88
2023/09/10 10:22:35;;;;;;;;;;;;;;;187.52;0.00;60892.56;6079241;22;19986;-89
2023/09/10 10:25:14;;;;;;;;;;;;;;;-145.06;0.00;60892.56;6057239;22;19911;-89
2023/09/10 10:27:54;;;;;;;;;;;;;;;-145.06;0.00;60892.56;6069727;22;19911;-89
2023/09/10 10:30:34;;;;;;;;;;;;;;;-145.06;0.00;60892.56;6058386;22;19916;-90
2023/09/10 10:33:16;;;;;;;;;;;;;;;-145.06;0.00;60892.56;6057197;22;19911;-89
2023/09/10 10:36:03;;;;;;;;;;;;;;;-145.06;0.00;60892.56;6068919;22;19907;-89
2023/09/10 10:38:43;;;;;;;;;;;;;;;-145.06;0.00;60892.56;6058407;22;19907;-89
2023/09/10 10:41:27;;;;;;;;;;;;;;;-145.06;0.00;60892.56;6058124;22;19911;-91
2023/09/10 10:44:13;;;;;;;;;;;;;;;-145.06;0.00;60892.56;6056039;22;19938;-90
2023/09/10 10:47:02;;;;;;;;;;;;;;;-145.06;0.00;60892.56;6058386;22;19907;-90
2023/09/10 10:50:01;;;;;;;;;;;;;;;-145.06;0.00;60892.56;6057078;22;19912;-90
2023/09/10 10:52:46;;;;;;;;;;;;;;;-145.06;0.00;60892.56;6057998;22;20235;-90
2023/09/10 10:55:26;;;;;;;;;;;;;;;-145.06;0.00;60892.56;6057770;22;19911;-90
2023/09/10 10:58:05;;;;;;;;;;;;;;;-145.06;0.00;60892.56;6058276;22;19915;-90
2023/09/10 11:00:47;;;;;;;;;;;;;;;-145.06;0.00;60892.56;6078993;22;19907;-91
2023/09/10 11:03:26;;;;;;;;;;;;;;;-145.06;0.00;60892.56;6057709;22;19946;-90
2023/09/10 11:06:06;;;;;;;;;;;;;;;-145.06;0.00;60892.56;6079288;22;19912;-91
2023/09/10 11:08:48;;;;;;;;;;;;;;;-145.06;0.00;60892.56;6079008;22;19911;-90
2023/09/10 11:11:33;;;;;;;;;;;;;;;-145.06;0.00;60892.56;6056517;22;19942;-91
2023/09/10 11:14:12;;;;;;;;;;;;;;;-145.06;0.00;60892.56;6068504;22;19907;-90
2023/09/10 11:17:11;;;;;;;;;;;;;;;-145.06;0.00;60892.56;6080608;22;19911;-90
2023/09/10 11:19:50;;;;;;;;;;;;;;;-145.06;0.00;60892.56;6060525;22;19911;-91
2023/09/10 11:22:49;;;;;;;;;;;;;;;-145.06;0.00;60892.56;6081330;22;20194;-90
2023/09/10 11:25:28;;;;;;;;;;;;;;;-145.06;0.00;60892.56;6057695;22;19907;-91
2023/09/10 11:28:26;;;;;;;;;;;;;;;-145.06;0.00;60892.56;6081420;22;20321;-90
2023/09/10 11:31:25;;;;;;;;;;;;;;;-145.06;0.00;60892.56;6057790;22;20322;-90
2023/09/10 11:34:27;;;;;;;;;;;;;;;-145.06;0.00;60892.56;6058362;22;19911;-91
2023/09/10 11:37:07;;;;;;;;;;;;;;;-145.06;0.00;60892.56;6070466;22;20361;-92
2023/09/10 11:39:46;;;;;;;;;;;;;;;-145.06;0.00;60892.56;6057737;22;19987;-90
2023/09/10 11:42:24;;;;;;;;;;;;;;;-145.06;0.00;60892.56;6052811;22;19911;-90
2023/09/10 11:45:04;;;;;;;;;;;;;;;-145.06;0.00;60892.56;6065505;22;19907;-90
2023/09/10 11:47:43;;;;;;;;;;;;;;;-145.06;0.00;60892.56;6054577;22;19907;-91
2023/09/10 11:50:23;;;;;;;;;;;;;;;-145.06;0.00;60892.56;6055782;22;19911;-90
2023/09/10 11:53:02;;;;;;;;;;;;;;;-145.06;0.00;60892.56;6054042;22;20314;-90
2023/09/10 11:55:41;;;;;;;;;;;;;;;-145.06;0.00;60892.56;6066589;22;19912;-90
2023/09/10 11:58:20;;;;;;;;;;;;;;;-145.06;0.00;60892.56;6077041;22;19907;-89
2023/09/10 12:01:01;;;;;;;;;;;;;;;-145.06;0.00;60892.56;6055758;22;20179;-90
2023/09/10 12:03:44;;;;;;;;;;;;;;;-145.06;0.00;60892.56;6066407;22;20215;-90
2023/09/10 12:06:22;;;;;;;;;;;;;;;-145.06;0.00;60892.56;6076289;22;19911;-90
2023/09/10 12:09:01;;;;;;;;;;;;;;;-145.06;0.00;60892.56;6077629;22;19911;-90
2023/09/10 12:11:41;;;;;;;;;;;;;;;-145.06;0.00;60892.56;6054115;22;19915;-90
2023/09/10 12:14:20;;;;;;;;;;;;;;;-145.06;0.00;60892.56;6055086;22;20353;-91
2023/09/10 12:16:59;;;;;;;;;;;;;;;-145.06;0.00;60892.56;6055374;22;19907;-90
2023/09/10 12:19:38;;;;;;;;;;;;;;;-145.06;0.00;60892.56;6054517;22;19907;-90
2023/09/10 12:22:19;;;;;;;;;;;;;;;-145.06;0.00;60892.56;6054418;22;19907;-90
2023/09/10 12:24:59;;;;;;;;;;;;;;;-145.06;0.00;60892.56;6076786;22;19939;-90
2023/09/10 12:27:38;;;;;;;;;;;;;;;-145.06;0.00;60892.56;6075453;22;19907;-91
2023/09/10 12:30:16;;;;;;;;;;;;;;;-145.06;0.00;60892.56;6076983;22;19911;-91
2023/09/10 12:32:55;;;;;;;;;;;;;;;-145.06;0.00;60892.56;6076188;22;19907;-90
2023/09/10 12:35:35;;;;;;;;;;;;;;;-145.06;0.00;60892.56;6076134;22;20325;-89
2023/09/10 12:38:15;;;;;;;;;;;;;;;-145.06;0.00;60892.56;6054569;22;19907;-90
2023/09/10 12:40:54;;;;;;;;;;;;;;;-145.06;0.00;60892.56;6054603;22;19911;-89
2023/09/10 12:43:34;;;;;;;;;;;;;;;-145.06;0.00;60892.56;6053683;22;19907;-90
2023/09/10 12:46:12;;;;;;;;;;;;;;;-145.06;0.00;60892.56;6065386;22;20009;-90
2023/09/10 12:48:52;;;;;;;;;;;;;;;-145.06;0.00;60892.56;6078793;22;19938;-90
2023/09/10 12:51:30;;;;;;;;;;;;;;;-145.06;0.00;60892.56;6075865;22;19915;-90
2023/09/10 12:54:10;;;;;;;;;;;;;;;-145.06;0.00;60892.56;6076007;22;19907;-90
2023/09/10 12:56:51;;;;;;;;;;;;;;;-145.06;0.00;60892.56;6054069;22;19911;-90
2023/09/10 12:59:31;;;;;;;;;;;;;;;-145.06;0.00;60892.56;6075477;22;20314;-90
2023/09/10 13:02:10;;;;;;;;;;;;;;;-145.06;0.00;60892.56;6076021;22;19911;-90
2023/09/10 13:04:52;;;;;;;;;;;;;;;-145.06;0.00;60892.56;6076686;22;20223;-90
2023/09/10 13:07:30;;;;;;;;;;;;;;;-145.06;0.00;60892.56;6053836;22;20480;-90
2023/09/10 13:10:10;;;;;;;;;;;;;;;-145.06;0.00;60892.56;6076518;22;20211;-91
2023/09/10 13:12:49;;;;;;;;;;;;;;;-145.06;0.00;60892.56;6075177;22;19942;-91
2023/09/10 13:15:28;;;;;;;;;;;;;;;-145.06;0.00;60892.56;6064788;22;19907;-90
2023/09/10 13:18:07;;;;;;;;;;;;;;;-145.06;0.00;60892.56;6065121;22;20357;-90
2023/09/10 13:20:46;;;;;;;;;;;;;;;-145.06;0.00;60892.56;6054860;22;20018;-90
2023/09/10 13:23:24;;;;;;;;;;;;;;;-145.06;0.00;60892.56;6075413;22;19915;-90
2023/09/10 13:26:04;;;;;;;;;;;;;;;-145.06;0.00;60892.56;6065599;22;19907;-90
2023/09/10 13:28:42;;;;;;;;;;;;;;;-145.06;0.00;60892.56;6076898;22;19943;-90
2023/09/10 13:31:21;;;;;;;;;;;;;;;-145.06;0.00;60892.56;6074954;22;19915;-90
2023/09/10 13:34:00;;;;;;;;;;;;;;;-145.06;0.00;60892.56;6076268;22;19907;-90
2023/09/10 13:36:39;;;;;;;;;;;;;;;-145.06;0.00;60892.56;6053826;22;19907;-90
2023/09/10 13:39:19;;;;;;;;;;;;;;;-145.06;0.00;60892.56;6065905;22;20219;-90
2023/09/10 13:41:58;;;;;;;;;;;;;;;-145.06;0.00;60892.56;6053880;22;19935;-90
2023/09/10 13:44:37;;;;;;;;;;;;;;;-145.06;0.00;60892.56;6076230;22;19911;-90